Back to Top

Language: 

My Weather Underground Personal Weather Station Historical Data with Graphs...

Delerius Weather Station Historical Data
Daily Summary for April 22, 2017 Units:  Metric    English   Both
« Previous Day
Next Day »
Daily Weekly Monthly Yearly Custom
  High: Low: Average:
Temperature: 15.6 °C 6.4 °C 10.2 °C
Dew Point: 7.4 °C 1.7 °C 5.1 °C
Humidity: 95 % 47 % 72 %
Wind Speed: 17.7 km/h 0 km/h 5.1 km/h
Wind Gust: 32.2 km/h - -
Wind:- - ESE
Pressure: 1029.7 hPa 1027 hPa -
Precipitation: 0 mm    
Historical Graphs
 
 
Tabular Data for April 22, 2017
Time Temperature Dew Point Pressure Wind Wind Speed Wind Gust Humidity Rainfall Rate (Hourly) solar Conditions
00:02 9.7 °C 6.9 °C 1028.7 hPa NW 11.3 km/h 24.1 km/h 83 % 0 mm 0 W/m2
00:07 9.6 °C 7 °C 1028.7 hPa NW 9.7 km/h 24.1 km/h 84 % 0 mm 0 W/m2
00:12 9.6 °C 7.2 °C 1028.7 hPa NW 8 km/h 17.7 km/h 85 % 0 mm 0 W/m2
00:17 9.5 °C 7.3 °C 1028.7 hPa NW 6.4 km/h 17.7 km/h 86 % 0 mm 0 W/m2
00:22 9.4 °C 7.3 °C 1029 hPa North 3.2 km/h 12.9 km/h 87 % 0 mm 0 W/m2
00:27 9.3 °C 7.4 °C 1029 hPa NE 3.2 km/h 11.3 km/h 88 % 0 mm 0 W/m2
00:32 9.1 °C 7.4 °C 1029 hPa NE 4.8 km/h 12.9 km/h 89 % 0 mm 0 W/m2
00:37 8.8 °C 7.1 °C 1029 hPa NE 6.4 km/h 12.9 km/h 89 % 0 mm 0 W/m2
00:42 8.7 °C 7.2 °C 1029 hPa NE 3.2 km/h 9.7 km/h 90 % 0 mm 0 W/m2
00:47 8.6 °C 7.2 °C 1029 hPa NE 3.2 km/h 9.7 km/h 91 % 0 mm 0 W/m2
00:52 8.4 °C 7 °C 1029 hPa NE 3.2 km/h 9.7 km/h 91 % 0 mm 0 W/m2
00:57 8.4 °C 7.2 °C 1029 hPa NNE 4.8 km/h 9.7 km/h 92 % 0 mm 0 W/m2
01:02 8.3 °C 7.1 °C 1029 hPa NNE 4.8 km/h 9.7 km/h 92 % 0 mm 0 W/m2
01:07 8.2 °C 7 °C 1029 hPa NNE 3.2 km/h 9.7 km/h 92 % 0 mm 0 W/m2
01:12 8.2 °C 7.1 °C 1029 hPa NE 1.6 km/h 8 km/h 93 % 0 mm 0 W/m2
01:17 8.2 °C 7.1 °C 1029 hPa NE 1.6 km/h 6.4 km/h 93 % 0 mm 0 W/m2
01:22 8.2 °C 7.1 °C 1029 hPa NE 1.6 km/h 6.4 km/h 93 % 0 mm 0 W/m2
01:27 8.2 °C 7.1 °C 1029 hPa ENE 1.6 km/h 4.8 km/h 93 % 0 mm 0 W/m2
01:32 8.1 °C 7.1 °C 1029 hPa ENE 1.6 km/h 6.4 km/h 93 % 0 mm 0 W/m2
01:37 8.1 °C 7.1 °C 1029 hPa East 1.6 km/h 6.4 km/h 93 % 0 mm 0 W/m2
01:42 8.1 °C 7.1 °C 1029 hPa Calm   6.4 km/h 93 % 0 mm 0 W/m2
01:47 8.1 °C 7.1 °C 1029 hPa ENE 1.6 km/h 6.4 km/h 93 % 0 mm 0 W/m2
01:52 7.9 °C 6.8 °C 1029 hPa ENE 1.6 km/h 6.4 km/h 93 % 0 mm 0 W/m2
01:58 7.9 °C 6.8 °C 1029 hPa Calm   3.2 km/h 93 % 0 mm 0 W/m2
02:03 7.9 °C 6.8 °C 1029 hPa Calm   6.4 km/h 93 % 0 mm 0 W/m2
02:08 7.9 °C 7 °C 1029 hPa ENE 1.6 km/h 6.4 km/h 94 % 0 mm 0 W/m2
02:13 7.8 °C 6.9 °C 1029 hPa ENE 1.6 km/h 6.4 km/h 94 % 0 mm 0 W/m2
02:18 7.8 °C 6.9 °C 1028.7 hPa Calm   6.4 km/h 94 % 0 mm 0 W/m2
02:27 7.8 °C 6.9 °C 1028.7 hPa Calm   3.2 km/h 94 % 0 mm 0 W/m2
02:32 7.8 °C 6.9 °C 1028.7 hPa Calm   3.2 km/h 94 % 0 mm 0 W/m2
02:37 7.8 °C 6.9 °C 1028.7 hPa Calm   3.2 km/h 94 % 0 mm 0 W/m2
02:42 7.8 °C 6.9 °C 1028.7 hPa Calm   3.2 km/h 94 % 0 mm 0 W/m2
02:47 7.8 °C 6.9 °C 1028.7 hPa Calm   1.6 km/h 94 % 0 mm 0 W/m2
02:52 7.8 °C 6.9 °C 1028.7 hPa Calm   6.4 km/h 94 % 0 mm 0 W/m2
02:57 7.7 °C 6.8 °C 1028.7 hPa Calm   6.4 km/h 94 % 0 mm 0 W/m2
03:02 7.7 °C 6.8 °C 1028.7 hPa Calm   3.2 km/h 94 % 0 mm 0 W/m2
03:07 7.7 °C 6.8 °C 1028.7 hPa Calm   1.6 km/h 94 % 0 mm 0 W/m2
03:12 7.7 °C 6.8 °C 1028.7 hPa Calm   1.6 km/h 94 % 0 mm 0 W/m2
03:17 7.7 °C 6.8 °C 1028.7 hPa Calm   1.6 km/h 94 % 0 mm 0 W/m2
03:22 7.7 °C 6.9 °C 1028.7 hPa ESE 1.6 km/h 4.8 km/h 95 % 0 mm 0 W/m2
03:27 7.7 °C 6.9 °C 1028.7 hPa ESE 1.6 km/h 4.8 km/h 95 % 0 mm 0 W/m2
03:32 7.7 °C 6.8 °C 1028.7 hPa Calm   6.4 km/h 94 % 0 mm 0 W/m2
03:37 7.7 °C 6.8 °C 1028.7 hPa Calm   6.4 km/h 94 % 0 mm 0 W/m2
03:42 7.7 °C 6.9 °C 1028.3 hPa Calm   4.8 km/h 95 % 0 mm 0 W/m2
03:47 7.7 °C 6.9 °C 1028.3 hPa Calm   4.8 km/h 95 % 0 mm 0 W/m2
03:57 7.7 °C 6.9 °C 1028.7 hPa Calm     95 % 0 mm 0 W/m2
04:02 7.7 °C 6.9 °C 1028.3 hPa Calm     95 % 0 mm 0 W/m2
04:07 7.6 °C 6.8 °C 1028.7 hPa Calm     95 % 0 mm 0 W/m2
04:12 7.7 °C 6.9 °C 1028.3 hPa Calm     95 % 0 mm 0 W/m2
04:17 7.7 °C 6.9 °C 1028.3 hPa Calm     95 % 0 mm 0 W/m2
04:22 7.7 °C 6.9 °C 1028.3 hPa Calm     95 % 0 mm 0 W/m2
04:27 7.7 °C 6.9 °C 1028.3 hPa Calm     95 % 0 mm 0 W/m2
04:32 7.7 °C 6.9 °C 1028.3 hPa Calm     95 % 0 mm 0 W/m2
04:37 7.7 °C 6.9 °C 1028.3 hPa Calm     95 % 0 mm 0 W/m2
04:42 7.7 °C 6.8 °C 1028.3 hPa Calm     94 % 0 mm 0 W/m2
04:47 7.7 °C 6.9 °C 1028.3 hPa Calm     95 % 0 mm 0 W/m2
04:52 7.8 °C 7.1 °C 1028.3 hPa Calm     95 % 0 mm 0 W/m2
04:57 7.8 °C 6.9 °C 1028.3 hPa Calm     94 % 0 mm 0 W/m2
05:02 7.8 °C 6.9 °C 1028.3 hPa Calm     94 % 0 mm 0 W/m2
05:07 7.7 °C 6.8 °C 1028.3 hPa Calm     94 % 0 mm 0 W/m2
05:30 7.7 °C 6.8 °C 1028.3 hPa ESE 3.2 km/h 3.2 km/h 94 % 0 mm 0 W/m2
05:45 7.4 °C 6.3 °C 1028.3 hPa WNW 8 km/h 8 km/h 93 % 0 mm 0 W/m2
06:00 7.1 °C 6 °C 1028.7 hPa WNW 9.7 km/h 9.7 km/h 93 % 0 mm 3 W/m2
06:15 6.9 °C 5.9 °C 1028.7 hPa WNW 11.3 km/h 11.3 km/h 93 % 0 mm 11 W/m2
06:30 6.8 °C 5.4 °C 1028.7 hPa NW 14.5 km/h 14.5 km/h 91 % 0 mm 19 W/m2
06:45 6.7 °C 5.2 °C 1028.7 hPa NW 17.7 km/h 17.7 km/h 90 % 0 mm 23 W/m2
07:00 6.7 °C 5 °C 1029 hPa NW 12.9 km/h 12.9 km/h 89 % 0 mm 43 W/m2
07:15 6.8 °C 5.3 °C 1029 hPa NW 14.5 km/h 14.5 km/h 90 % 0 mm 123 W/m2
07:30 7.6 °C 5.4 °C 1029 hPa NW 16.1 km/h 16.1 km/h 86 % 0 mm 177 W/m2
07:45 8.2 °C 5.7 °C 1029 hPa NW 14.5 km/h 14.5 km/h 84 % 0 mm 135 W/m2
08:00 8.4 °C 5.6 °C 1029.3 hPa NNW 14.5 km/h 14.5 km/h 82 % 0 mm 129 W/m2
08:15 8.4 °C 5.5 °C 1029.3 hPa NNW 14.5 km/h 14.5 km/h 82 % 0 mm 141 W/m2
09:56 10.4 °C 6.3 °C 1029.7 hPa NNW 3.2 km/h 3.2 km/h 76 % 0 mm 279 W/m2
10:07 10.6 °C 6.6 °C 1029.7 hPa NNW 3.2 km/h 3.2 km/h 76 % 0 mm 770 W/m2
10:12 11 °C 6.6 °C 1029.7 hPa North 6.4 km/h 11.3 km/h 74 % 0 mm 765 W/m2
10:17 11.1 °C 6.6 °C 1029.7 hPa North 4.8 km/h 12.9 km/h 74 % 0 mm 193 W/m2
10:22 11 °C 6.3 °C 1029.3 hPa North 6.4 km/h 12.9 km/h 73 % 0 mm 185 W/m2
10:27 10.9 °C 6.2 °C 1029.3 hPa NNW 4.8 km/h 11.3 km/h 73 % 0 mm 236 W/m2
10:32 10.9 °C 6.4 °C 1029.7 hPa NNW 4.8 km/h 12.9 km/h 74 % 0 mm 853 W/m2
10:33 10.9 °C 6.2 °C 1029.7 hPa NNW 4.8 km/h 12.9 km/h 73 % 0 mm 853 W/m2
10:38 11.1 °C 6.6 °C 1029.7 hPa North 6.4 km/h 14.5 km/h 74 % 0 mm 538 W/m2
10:43 11.3 °C 6.6 °C 1029.7 hPa NNW 6.4 km/h 14.5 km/h 73 % 0 mm 265 W/m2
10:48 11.3 °C 6.4 °C 1029.7 hPa NNW 6.4 km/h 14.5 km/h 72 % 0 mm 223 W/m2
10:53 11.2 °C 6.1 °C 1029.7 hPa NNW 6.4 km/h 14.5 km/h 71 % 0 mm 232 W/m2
10:58 11.2 °C 6.3 °C 1029.7 hPa NNW 6.4 km/h 12.9 km/h 72 % 0 mm 325 W/m2
11:03 11.1 °C 6.2 °C 1029.7 hPa NNW 6.4 km/h 14.5 km/h 72 % 0 mm 967 W/m2
11:08 11.3 °C 6.4 °C 1029.7 hPa North 8 km/h 16.1 km/h 72 % 0 mm 986 W/m2
11:13 11.4 °C 6.3 °C 1029.7 hPa North 8 km/h 16.1 km/h 71 % 0 mm 272 W/m2
11:18 11.3 °C 6 °C 1029.7 hPa North 8 km/h 14.5 km/h 70 % 0 mm 295 W/m2
11:23 11.3 °C 6.2 °C 1029.7 hPa NNE 6.4 km/h 16.1 km/h 71 % 0 mm 392 W/m2
11:28 11.3 °C 6.2 °C 1029.7 hPa North 6.4 km/h 16.1 km/h 71 % 0 mm 287 W/m2
11:33 11.4 °C 6.1 °C 1029.7 hPa North 6.4 km/h 14.5 km/h 70 % 0 mm 904 W/m2
11:38 11.6 °C 5.9 °C 1029.7 hPa North 6.4 km/h 17.7 km/h 68 % 0 mm 339 W/m2
11:43 11.6 °C 5.7 °C 1029.7 hPa North 6.4 km/h 17.7 km/h 67 % 0 mm 974 W/m2
11:48 11.7 °C 5.8 °C 1029.7 hPa NNE 8 km/h 17.7 km/h 67 % 0 mm 192 W/m2
11:53 11.4 °C 5.7 °C 1029.3 hPa NE 8 km/h 17.7 km/h 68 % 0 mm 861 W/m2
11:58 11.4 °C 5.9 °C 1029.3 hPa ENE 8 km/h 16.1 km/h 69 % 0 mm 831 W/m2
12:03 11.4 °C 5.7 °C 1029.3 hPa NE 8 km/h 17.7 km/h 68 % 0 mm 833 W/m2
12:08 11.4 °C 6.1 °C 1029 hPa NE 8 km/h 17.7 km/h 70 % 0 mm 826 W/m2
12:13 11.6 °C 5.9 °C 1029 hPa ENE 4.8 km/h 14.5 km/h 68 % 0 mm 833 W/m2
12:18 12.1 °C 5.9 °C 1029 hPa ENE 4.8 km/h 12.9 km/h 66 % 0 mm 838 W/m2
12:23 12 °C 5.6 °C 1029 hPa East 6.4 km/h 12.9 km/h 65 % 0 mm 912 W/m2
12:28 12.1 °C 5.9 °C 1029 hPa ESE 6.4 km/h 14.5 km/h 66 % 0 mm 965 W/m2
12:38 12.4 °C 6 °C 1029 hPa ENE 3.2 km/h 11.3 km/h 65 % 0 mm 1074 W/m2
12:43 12.7 °C 5.8 °C 1029 hPa NE 6.4 km/h 20.9 km/h 63 % 0 mm 225 W/m2
12:48 12.3 °C 5.4 °C 1029 hPa NE 8 km/h 20.9 km/h 63 % 0 mm 139 W/m2
12:53 12 °C 4.7 °C 1029 hPa NE 6.4 km/h 14.5 km/h 61 % 0 mm 155 W/m2
12:59 11.8 °C 5 °C 1028.7 hPa NE 3.2 km/h 14.5 km/h 63 % 0 mm 197 W/m2
13:04 12 °C 5.2 °C 1028.7 hPa NNE 1.6 km/h 11.3 km/h 63 % 0 mm 1048 W/m2
13:09 12.3 °C 5 °C 1028.7 hPa NNE 3.2 km/h 11.3 km/h 61 % 0 mm 1067 W/m2
13:14 12.3 °C 5.2 °C 1028.7 hPa NNE 1.6 km/h 11.3 km/h 62 % 0 mm 269 W/m2
13:19 12.4 °C 5.6 °C 1028.7 hPa North 4.8 km/h 16.1 km/h 63 % 0 mm 255 W/m2
13:24 12.3 °C 5.4 °C 1028.7 hPa NNE 8 km/h 16.1 km/h 63 % 0 mm 165 W/m2
13:29 12.1 °C 5.7 °C 1028.7 hPa NE 8 km/h 16.1 km/h 65 % 0 mm 935 W/m2
13:34 12.2 °C 5.6 °C 1028.7 hPa NE 6.4 km/h 14.5 km/h 64 % 0 mm 271 W/m2
13:39 12.3 °C 5.7 °C 1028.3 hPa ENE 6.4 km/h 16.1 km/h 64 % 0 mm 991 W/m2
13:44 12.5 °C 5.7 °C 1028.3 hPa ENE 4.8 km/h 16.1 km/h 63 % 0 mm 401 W/m2
13:49 12.6 °C 5.3 °C 1028.3 hPa ESE 4.8 km/h 12.9 km/h 61 % 0 mm 793 W/m2
13:54 12.9 °C 5.6 °C 1028.3 hPa ESE 3.2 km/h 12.9 km/h 61 % 0 mm 854 W/m2
13:59 13.1 °C 5.3 °C 1028.3 hPa East 3.2 km/h 14.5 km/h 59 % 0 mm 276 W/m2
14:04 13.2 °C 5.1 °C 1028.3 hPa ESE 4.8 km/h 14.5 km/h 58 % 0 mm 886 W/m2
14:09 13.4 °C 5.1 °C 1028.3 hPa East 3.2 km/h 12.9 km/h 57 % 0 mm 900 W/m2
14:14 13.6 °C 4.7 °C 1028 hPa NE 3.2 km/h 11.3 km/h 55 % 0 mm 893 W/m2
14:19 13.7 °C 5.1 °C 1028 hPa NE 4.8 km/h 11.3 km/h 56 % 0 mm 881 W/m2
14:24 14.1 °C 5.7 °C 1028 hPa NNE 6.4 km/h 17.7 km/h 57 % 0 mm 970 W/m2
14:29 14.1 °C 5.2 °C 1028 hPa NE 6.4 km/h 17.7 km/h 55 % 0 mm 988 W/m2
14:34 14.2 °C 5.3 °C 1028 hPa NNE 6.4 km/h 16.1 km/h 55 % 0 mm 279 W/m2
14:39 14.1 °C 4.9 °C 1028 hPa NNE 4.8 km/h 16.1 km/h 54 % 0 mm 220 W/m2
14:44 14 °C 5.1 °C 1028 hPa ENE 3.2 km/h 11.3 km/h 55 % 0 mm 199 W/m2
14:49 13.9 °C 4.7 °C 1027.7 hPa East 4.8 km/h 11.3 km/h 54 % 0 mm 671 W/m2
14:54 13.8 °C 4.7 °C 1027.7 hPa ENE 4.8 km/h 11.3 km/h 54 % 0 mm 355 W/m2
14:59 14.1 °C 4.9 °C 1027.7 hPa NNW 3.2 km/h 12.9 km/h 54 % 0 mm 355 W/m2
15:04 14.1 °C 4.9 °C 1027.7 hPa NNE 4.8 km/h 17.7 km/h 54 % 0 mm 285 W/m2
15:09 13.9 °C 5.3 °C 1027.7 hPa NE 6.4 km/h 17.7 km/h 56 % 0 mm 246 W/m2
15:14 13.8 °C 4.9 °C 1027.7 hPa NE 4.8 km/h 17.7 km/h 55 % 0 mm 232 W/m2
15:19 13.6 °C 5 °C 1027.7 hPa NE 3.2 km/h 11.3 km/h 56 % 0 mm 805 W/m2
15:25 13.5 °C 4.9 °C 1027.3 hPa NNE 4.8 km/h 11.3 km/h 56 % 0 mm 204 W/m2
15:30 13.6 °C 4.7 °C 1027.3 hPa NE 4.8 km/h 12.9 km/h 55 % 0 mm 204 W/m2
15:35 13.6 °C 4.4 °C 1027.3 hPa NE 3.2 km/h 12.9 km/h 54 % 0 mm 724 W/m2
15:40 13.7 °C 4.3 °C 1027.3 hPa NE 3.2 km/h 9.7 km/h 53 % 0 mm 677 W/m2
15:45 14.2 °C 4.5 °C 1027.3 hPa North 1.6 km/h 6.4 km/h 52 % 0 mm 686 W/m2
15:50 14.6 °C 4.6 °C 1027.3 hPa NW 1.6 km/h 9.7 km/h 51 % 0 mm 149 W/m2
15:55 14.7 °C 4.4 °C 1027 hPa NW 3.2 km/h 11.3 km/h 50 % 0 mm 239 W/m2
16:00 15 °C 4.1 °C 1027.3 hPa NW 4.8 km/h 14.5 km/h 48 % 0 mm 679 W/m2
16:05 15.3 °C 4.1 °C 1027 hPa NW 8 km/h 19.3 km/h 47 % 0 mm 679 W/m2
16:10 15.4 °C 4.1 °C 1027 hPa NW 8 km/h 19.3 km/h 47 % 0 mm 687 W/m2
16:15 15.6 °C 4.6 °C 1027 hPa NNW 8 km/h 16.1 km/h 48 % 0 mm 740 W/m2
16:20 15 °C 4.7 °C 1027 hPa North 9.7 km/h 16.1 km/h 50 % 0 mm 257 W/m2
16:25 14.4 °C 4.7 °C 1027 hPa NE 9.7 km/h 17.7 km/h 52 % 0 mm 712 W/m2
16:30 14.3 °C 4.6 °C 1027 hPa NE 9.7 km/h 17.7 km/h 52 % 0 mm 728 W/m2
16:35 14.1 °C 4.7 °C 1027 hPa NE 8 km/h 14.5 km/h 53 % 0 mm 148 W/m2
16:40 13.8 °C 4.4 °C 1027 hPa NE 8 km/h 14.5 km/h 53 % 0 mm 137 W/m2
16:45 13.6 °C 4.4 °C 1027 hPa NE 4.8 km/h 12.9 km/h 54 % 0 mm 162 W/m2
16:50 13.4 °C 4.6 °C 1027 hPa East 4.8 km/h 14.5 km/h 55 % 0 mm 269 W/m2
16:51 13.4 °C 4.6 °C 1027 hPa East 4.8 km/h 14.5 km/h 55 % 0 mm 269 W/m2
16:56 13.5 °C 4.9 °C 1027 hPa ESE 6.4 km/h 14.5 km/h 56 % 0 mm 241 W/m2
17:01 13.5 °C 4.6 °C 1027 hPa ESE 9.7 km/h 17.7 km/h 55 % 0 mm 183 W/m2
17:06 13.3 °C 4.4 °C 1027 hPa ESE 9.7 km/h 17.7 km/h 55 % 0 mm 267 W/m2
17:11 13.4 °C 4.6 °C 1027 hPa ESE 8 km/h 19.3 km/h 55 % 0 mm 156 W/m2
17:16 13.3 °C 4.4 °C 1027 hPa ESE 6.4 km/h 19.3 km/h 55 % 0 mm 151 W/m2
17:21 13.2 °C 4.8 °C 1027 hPa ESE 8 km/h 14.5 km/h 57 % 0 mm 153 W/m2
17:26 13.2 °C 4.6 °C 1027 hPa ESE 8 km/h 14.5 km/h 56 % 0 mm 123 W/m2
17:31 13.2 °C 4.8 °C 1027 hPa ESE 6.4 km/h 12.9 km/h 57 % 0 mm 109 W/m2
17:36 13.1 °C 4.8 °C 1027 hPa ESE 6.4 km/h 11.3 km/h 57 % 0 mm 102 W/m2
17:41 13.1 °C 4.8 °C 1027 hPa ESE 4.8 km/h 11.3 km/h 57 % 0 mm 109 W/m2
17:46 13 °C 4.4 °C 1027 hPa East 4.8 km/h 11.3 km/h 56 % 0 mm 102 W/m2
17:51 12.8 °C 4.2 °C 1027 hPa ENE 6.4 km/h 11.3 km/h 56 % 0 mm 121 W/m2
17:56 12.7 °C 4.4 °C 1027 hPa ENE 4.8 km/h 11.3 km/h 57 % 0 mm 141 W/m2
18:01 12.6 °C 4.3 °C 1027 hPa ENE 4.8 km/h 9.7 km/h 57 % 0 mm 125 W/m2
18:06 12.6 °C 4.3 °C 1027 hPa ENE 4.8 km/h 12.9 km/h 57 % 0 mm 114 W/m2
18:11 12.5 °C 4.2 °C 1027 hPa ENE 6.4 km/h 12.9 km/h 57 % 0 mm 83 W/m2
18:16 12.4 °C 4.1 °C 1027 hPa ENE 4.8 km/h 11.3 km/h 57 % 0 mm 67 W/m2
18:21 12.4 °C 4.3 °C 1027 hPa ENE 1.6 km/h 8 km/h 58 % 0 mm 69 W/m2
18:26 12.3 °C 4 °C 1027 hPa ENE 1.6 km/h 8 km/h 57 % 0 mm 63 W/m2
18:31 12.3 °C 4.5 °C 1027 hPa East 3.2 km/h 11.3 km/h 59 % 0 mm 74 W/m2
18:37 12.3 °C 4.5 °C 1027 hPa East 3.2 km/h 11.3 km/h 59 % 0 mm 76 W/m2
18:42 12.2 °C 4.4 °C 1027 hPa East 4.8 km/h 12.9 km/h 59 % 0 mm 74 W/m2
18:47 12.1 °C 4.3 °C 1027 hPa ENE 6.4 km/h 14.5 km/h 59 % 0 mm 62 W/m2
18:52 11.9 °C 4.1 °C 1027 hPa ENE 8 km/h 14.5 km/h 59 % 0 mm 69 W/m2
18:57 11.8 °C 4.3 °C 1027 hPa ENE 6.4 km/h 12.9 km/h 60 % 0 mm 77 W/m2
19:02 11.8 °C 3.8 °C 1027.3 hPa NE 8 km/h 22.5 km/h 58 % 0 mm 58 W/m2
19:07 11.6 °C 3.6 °C 1027.3 hPa NE 11.3 km/h 22.5 km/h 58 % 0 mm 51 W/m2
19:12 11.3 °C 4.1 °C 1027.3 hPa ENE 11.3 km/h 29 km/h 61 % 0 mm 40 W/m2
19:17 10.7 °C 4.2 °C 1027.3 hPa ENE 12.9 km/h 29 km/h 64 % 0 mm 33 W/m2
19:22 10.3 °C 4.2 °C 1027.7 hPa ENE 9.7 km/h 20.9 km/h 66 % 0 mm 26 W/m2
19:27 9.9 °C 3.8 °C 1027.7 hPa ENE 9.7 km/h 20.9 km/h 66 % 0 mm 23 W/m2
19:32 9.5 °C 3.7 °C 1027.7 hPa ENE 11.3 km/h 20.9 km/h 67 % 0 mm 25 W/m2
19:37 9.3 °C 3.7 °C 1027.7 hPa East 11.3 km/h 22.5 km/h 68 % 0 mm 26 W/m2
19:42 9.1 °C 3.9 °C 1027.7 hPa East 9.7 km/h 20.9 km/h 70 % 0 mm 19 W/m2
19:47 8.9 °C 3.9 °C 1027.7 hPa East 9.7 km/h 20.9 km/h 71 % 0 mm 18 W/m2
19:52 8.8 °C 3.8 °C 1027.7 hPa East 9.7 km/h 32.2 km/h 71 % 0 mm 16 W/m2
19:57 8.7 °C 3.9 °C 1027.7 hPa East 9.7 km/h 32.2 km/h 72 % 0 mm 12 W/m2
19:58 8.7 °C 3.9 °C 1027.7 hPa East 9.7 km/h 32.2 km/h 72 % 0 mm 11 W/m2
20:03 8.6 °C 3.8 °C 1028 hPa East 8 km/h 16.1 km/h 72 % 0 mm 7 W/m2
20:08 8.5 °C 3.9 °C 1028 hPa East 9.7 km/h 17.7 km/h 73 % 0 mm 5 W/m2
20:13 8.4 °C 3.8 °C 1028 hPa East 9.7 km/h 17.7 km/h 73 % 0 mm 0 W/m2
20:19 8.4 °C 3.8 °C 1028 hPa East 8 km/h 16.1 km/h 73 % 0 mm 0 W/m2
20:24 8.3 °C 3.6 °C 1028.3 hPa East 8 km/h 16.1 km/h 72 % 0 mm 0 W/m2
20:29 8.3 °C 3.6 °C 1028.3 hPa East 8 km/h 16.1 km/h 72 % 0 mm 0 W/m2
20:34 8.2 °C 3.4 °C 1028.3 hPa East 6.4 km/h 16.1 km/h 72 % 0 mm 0 W/m2
20:39 8.2 °C 3.4 °C 1028.3 hPa East 6.4 km/h 16.1 km/h 72 % 0 mm 0 W/m2
20:44 8.2 °C 3.4 °C 1028.3 hPa ESE 6.4 km/h 16.1 km/h 72 % 0 mm 0 W/m2
20:49 8.1 °C 3.3 °C 1028.3 hPa ESE 4.8 km/h 14.5 km/h 72 % 0 mm 0 W/m2
20:59 8.1 °C 3.3 °C 1028.7 hPa ESE 3.2 km/h 9.7 km/h 72 % 0 mm 0 W/m2
21:04 8.1 °C 3.2 °C 1028.7 hPa ESE 4.8 km/h 12.9 km/h 71 % 0 mm 0 W/m2
21:09 8.1 °C 3.2 °C 1028.7 hPa ESE 4.8 km/h 12.9 km/h 71 % 0 mm 0 W/m2
21:14 8 °C 3.1 °C 1028.7 hPa ESE 6.4 km/h 11.3 km/h 71 % 0 mm 0 W/m2
21:19 8.1 °C 2.9 °C 1028.7 hPa SE 6.4 km/h 11.3 km/h 70 % 0 mm 0 W/m2
21:24 8.1 °C 2.9 °C 1028.7 hPa SE 6.4 km/h 12.9 km/h 70 % 0 mm 0 W/m2
21:29 8.1 °C 2.9 °C 1028.7 hPa SE 6.4 km/h 12.9 km/h 70 % 0 mm 0 W/m2
21:34 8.1 °C 3.2 °C 1028.7 hPa SE 4.8 km/h 9.7 km/h 71 % 0 mm 0 W/m2
21:39 8.1 °C 3.2 °C 1029 hPa SSE 3.2 km/h 8 km/h 71 % 0 mm 0 W/m2
21:40 8.1 °C 3.2 °C 1029 hPa SSE 3.2 km/h 8 km/h 71 % 0 mm 0 W/m2
21:45 8.1 °C 3.2 °C 1029 hPa SSE 3.2 km/h 9.7 km/h 71 % 0 mm 0 W/m2
21:50 8.1 °C 2.9 °C 1029 hPa SE 4.8 km/h 11.3 km/h 70 % 0 mm 0 W/m2
21:55 8 °C 2.8 °C 1029 hPa SE 6.4 km/h 14.5 km/h 70 % 0 mm 0 W/m2
22:00 7.9 °C 2.8 °C 1029 hPa SE 8 km/h 14.5 km/h 70 % 0 mm 0 W/m2
22:05 7.9 °C 2.6 °C 1029 hPa SE 8 km/h 14.5 km/h 69 % 0 mm 0 W/m2
22:10 7.8 °C 2.4 °C 1029 hPa SSE 6.4 km/h 12.9 km/h 69 % 0 mm 0 W/m2
22:15 7.8 °C 2.7 °C 1029 hPa SSE 4.8 km/h 11.3 km/h 70 % 0 mm 0 W/m2
22:20 7.7 °C 2.4 °C 1029 hPa SE 6.4 km/h 11.3 km/h 69 % 0 mm 0 W/m2
22:25 7.7 °C 2.4 °C 1029 hPa SSE 6.4 km/h 12.9 km/h 69 % 0 mm 0 W/m2
22:30 7.6 °C 2.3 °C 1029 hPa SSE 4.8 km/h 11.3 km/h 69 % 0 mm 0 W/m2
22:35 7.4 °C 2.1 °C 1029 hPa SSE 6.4 km/h 12.9 km/h 69 % 0 mm 0 W/m2
22:40 7.4 °C 2.1 °C 1029 hPa SSE 6.4 km/h 14.5 km/h 69 % 0 mm 0 W/m2
22:45 7.2 °C 1.9 °C 1028.7 hPa SSE 6.4 km/h 14.5 km/h 69 % 0 mm 0 W/m2
22:50 7.1 °C 1.8 °C 1028.7 hPa SSE 6.4 km/h 12.9 km/h 69 % 0 mm 0 W/m2
22:55 7.1 °C 1.8 °C 1028.7 hPa SSE 4.8 km/h 9.7 km/h 69 % 0 mm 0 W/m2
23:00 7 °C 1.9 °C 1028.7 hPa SSE 3.2 km/h 8 km/h 70 % 0 mm 0 W/m2
23:05 6.9 °C 1.8 °C 1028.7 hPa SSE 1.6 km/h 6.4 km/h 70 % 0 mm 0 W/m2
23:10 6.9 °C 1.8 °C 1028.7 hPa SSE 1.6 km/h 6.4 km/h 70 % 0 mm 0 W/m2
23:11 6.9 °C 1.8 °C 1028.7 hPa SSE 1.6 km/h 6.4 km/h 70 % 0 mm 0 W/m2
23:16 6.8 °C 1.7 °C 1028.7 hPa Calm   6.4 km/h 70 % 0 mm 0 W/m2
23:21 6.7 °C 1.8 °C 1028.7 hPa Calm   3.2 km/h 71 % 0 mm 0 W/m2
23:26 6.7 °C 1.8 °C 1028.7 hPa SSE 1.6 km/h 8 km/h 71 % 0 mm 0 W/m2
23:36 6.6 °C 1.7 °C 1028.7 hPa SSE 3.2 km/h 8 km/h 71 % 0 mm 0 W/m2
23:41 6.6 °C 1.9 °C 1028.7 hPa South 1.6 km/h 8 km/h 72 % 0 mm 0 W/m2
23:46 6.5 °C 1.8 °C 1028.7 hPa South 1.6 km/h 6.4 km/h 72 % 0 mm 0 W/m2
23:51 6.4 °C 1.9 °C 1028.7 hPa South 3.2 km/h 8 km/h 73 % 0 mm 0 W/m2
23:56 6.4 °C 1.9 °C 1028.7 hPa South 1.6 km/h 8 km/h 73 % 0 mm 0 W/m2
Delerius-Weather
Compliments of Weather Underground - 2 mb

Data updates at regular intervals.